sensor_id;sensor_type;location;lat;lon;timestamp;pressure;altitude;pressure_sealevel;temperature;humidity
42847;BME280;28495;49.916;14.536;2022-12-07T00:01:21;96565.72;;;2.69;76.59
42847;BME280;28495;49.916;14.536;2022-12-07T00:06:43;96568.19;;;2.70;75.46
42847;BME280;28495;49.916;14.536;2022-12-07T00:12:04;96556.34;;;2.68;76.20
42847;BME280;28495;49.916;14.536;2022-12-07T00:17:25;96559.13;;;2.65;76.02
42847;BME280;28495;49.916;14.536;2022-12-07T00:22:45;96553.53;;;2.58;75.90
42847;BME280;28495;49.916;14.536;2022-12-07T00:28:06;96552.91;;;2.54;75.99
42847;BME280;28495;49.916;14.536;2022-12-07T00:33:31;96558.06;;;2.54;75.94
42847;BME280;28495;49.916;14.536;2022-12-07T00:38:52;96555.28;;;2.43;76.04
42847;BME280;28495;49.916;14.536;2022-12-07T00:44:13;96545.94;;;2.42;76.25
42847;BME280;28495;49.916;14.536;2022-12-07T00:49:34;96556.25;;;2.42;76.21
42847;BME280;28495;49.916;14.536;2022-12-07T00:54:55;96550.41;;;2.53;76.35
42847;BME280;28495;49.916;14.536;2022-12-07T01:00:16;96550.41;;;2.53;76.10
42847;BME280;28495;49.916;14.536;2022-12-07T01:05:36;96550.94;;;2.58;76.39
42847;BME280;28495;49.916;14.536;2022-12-07T01:11:04;96559.22;;;2.63;76.48
42847;BME280;28495;49.916;14.536;2022-12-07T01:16:28;96561.31;;;2.71;76.62
42847;BME280;28495;49.916;14.536;2022-12-07T01:21:49;96556.81;;;2.87;76.68
42847;BME280;28495;49.916;14.536;2022-12-07T01:27:09;96558.78;;;2.84;75.86
42847;BME280;28495;49.916;14.536;2022-12-07T01:32:30;96564.41;;;2.76;75.95
42847;BME280;28495;49.916;14.536;2022-12-07T01:37:51;96558.03;;;2.82;75.58
42847;BME280;28495;49.916;14.536;2022-12-07T01:43:18;96542.81;;;2.79;76.08
42847;BME280;28495;49.916;14.536;2022-12-07T01:48:39;96545.88;;;2.71;76.40
42847;BME280;28495;49.916;14.536;2022-12-07T01:54:01;96545.06;;;2.56;76.07
42847;BME280;28495;49.916;14.536;2022-12-07T01:59:23;96538.22;;;2.69;76.78
42847;BME280;28495;49.916;14.536;2022-12-07T02:04:45;96538.84;;;2.73;76.23
42847;BME280;28495;49.916;14.536;2022-12-07T02:10:20;96539.59;;;2.75;75.85
42847;BME280;28495;49.916;14.536;2022-12-07T02:15:58;96535.84;;;2.66;75.72
42847;BME280;28495;49.916;14.536;2022-12-07T02:22:13;96540.91;;;2.68;75.71
42847;BME280;28495;49.916;14.536;2022-12-07T02:38:08;96545.75;;;2.72;75.46
42847;BME280;28495;49.916;14.536;2022-12-07T02:43:39;96542.44;;;2.70;75.76
42847;BME280;28495;49.916;14.536;2022-12-07T02:49:02;96539.31;;;2.80;75.74
42847;BME280;28495;49.916;14.536;2022-12-07T02:54:23;96533.91;;;2.70;75.21
42847;BME280;28495;49.916;14.536;2022-12-07T03:05:13;96535.91;;;2.79;76.24
42847;BME280;28495;49.916;14.536;2022-12-07T03:16:47;96524.56;;;2.82;75.15
42847;BME280;28495;49.916;14.536;2022-12-07T03:22:02;96517.31;;;2.74;75.40
42847;BME280;28495;49.916;14.536;2022-12-07T03:27:29;96513.63;;;2.78;75.77
42847;BME280;28495;49.916;14.536;2022-12-07T03:43:45;96501.88;;;2.74;75.15
42847;BME280;28495;49.916;14.536;2022-12-07T03:54:47;96482.78;;;2.91;75.47
42847;BME280;28495;49.916;14.536;2022-12-07T04:00:11;96480.19;;;2.91;76.06
42847;BME280;28495;49.916;14.536;2022-12-07T04:05:33;96479.69;;;2.99;74.97
42847;BME280;28495;49.916;14.536;2022-12-07T04:10:53;96473.09;;;2.95;75.21
42847;BME280;28495;49.916;14.536;2022-12-07T04:16:14;96469.56;;;2.83;75.22
42847;BME280;28495;49.916;14.536;2022-12-07T04:21:35;96476.03;;;2.76;75.20
42847;BME280;28495;49.916;14.536;2022-12-07T04:26:56;96472.44;;;2.78;75.33
42847;BME280;28495;49.916;14.536;2022-12-07T04:32:17;96473.56;;;2.74;74.96
42847;BME280;28495;49.916;14.536;2022-12-07T04:37:37;96471.47;;;2.66;74.66
42847;BME280;28495;49.916;14.536;2022-12-07T04:43:00;96468.88;;;2.66;75.68
42847;BME280;28495;49.916;14.536;2022-12-07T04:48:20;96474.78;;;2.68;75.68
42847;BME280;28495;49.916;14.536;2022-12-07T04:53:41;96472.75;;;2.73;75.21
42847;BME280;28495;49.916;14.536;2022-12-07T04:59:02;96472.31;;;2.67;75.10
42847;BME280;28495;49.916;14.536;2022-12-07T05:04:23;96472.19;;;2.68;75.20
42847;BME280;28495;49.916;14.536;2022-12-07T05:09:44;96471.56;;;2.65;75.45
42847;BME280;28495;49.916;14.536;2022-12-07T05:15:05;96475.44;;;2.57;74.87
42847;BME280;28495;49.916;14.536;2022-12-07T05:20:25;96463.72;;;2.53;74.67
42847;BME280;28495;49.916;14.536;2022-12-07T05:25:46;96470.75;;;2.37;75.08
42847;BME280;28495;49.916;14.536;2022-12-07T05:31:07;96474.44;;;2.33;75.22
42847;BME280;28495;49.916;14.536;2022-12-07T05:36:28;96478.22;;;2.27;75.41
42847;BME280;28495;49.916;14.536;2022-12-07T05:41:49;96475.94;;;2.22;74.97
42847;BME280;28495;49.916;14.536;2022-12-07T05:47:28;96465.47;;;2.25;75.22
42847;BME280;28495;49.916;14.536;2022-12-07T05:52:49;96471.13;;;2.31;75.59
42847;BME280;28495;49.916;14.536;2022-12-07T05:58:10;96467.50;;;2.20;75.04
42847;BME280;28495;49.916;14.536;2022-12-07T06:03:49;96473.22;;;2.11;75.13
42847;BME280;28495;49.916;14.536;2022-12-07T06:09:10;96473.59;;;2.05;74.79
42847;BME280;28495;49.916;14.536;2022-12-07T06:14:33;96475.81;;;1.96;74.91
42847;BME280;28495;49.916;14.536;2022-12-07T06:19:53;96465.59;;;2.09;75.37
42847;BME280;28495;49.916;14.536;2022-12-07T06:25:14;96465.03;;;2.04;74.99
42847;BME280;28495;49.916;14.536;2022-12-07T06:30:35;96463.66;;;1.98;74.85
42847;BME280;28495;49.916;14.536;2022-12-07T06:35:55;96463.66;;;1.98;75.20
42847;BME280;28495;49.916;14.536;2022-12-07T06:41:16;96468.56;;;2.03;74.95
42847;BME280;28495;49.916;14.536;2022-12-07T06:46:37;96470.66;;;2.11;74.95
42847;BME280;28495;49.916;14.536;2022-12-07T06:51:59;96473.59;;;2.05;74.36
42847;BME280;28495;49.916;14.536;2022-12-07T06:57:19;96474.16;;;2.10;75.12
42847;BME280;28495;49.916;14.536;2022-12-07T07:02:40;96474.59;;;2.17;74.81
42847;BME280;28495;49.916;14.536;2022-12-07T07:08:01;96476.59;;;2.11;74.58
42847;BME280;28495;49.916;14.536;2022-12-07T07:13:43;96476.50;;;2.13;75.07
42847;BME280;28495;49.916;14.536;2022-12-07T07:19:04;96480.94;;;2.11;74.59
42847;BME280;28495;49.916;14.536;2022-12-07T07:24:25;96484.13;;;2.15;74.42
42847;BME280;28495;49.916;14.536;2022-12-07T07:29:45;96487.91;;;2.23;74.80
42847;BME280;28495;49.916;14.536;2022-12-07T07:35:06;96484.13;;;2.15;74.21
42847;BME280;28495;49.916;14.536;2022-12-07T07:40:27;96491.56;;;2.19;74.26
42847;BME280;28495;49.916;14.536;2022-12-07T07:45:49;96491.38;;;2.22;74.53
42847;BME280;28495;49.916;14.536;2022-12-07T07:51:11;96484.91;;;2.29;74.39
42847;BME280;28495;49.916;14.536;2022-12-07T07:56:32;96493.84;;;2.24;74.50
42847;BME280;28495;49.916;14.536;2022-12-07T08:01:52;96498.00;;;2.26;74.19
42847;BME280;28495;49.916;14.536;2022-12-07T08:07:14;96497.91;;;2.28;73.91
42847;BME280;28495;49.916;14.536;2022-12-07T08:12:35;96496.88;;;2.31;74.28
42847;BME280;28495;49.916;14.536;2022-12-07T08:17:56;96500.47;;;2.28;74.06
42847;BME280;28495;49.916;14.536;2022-12-07T08:23:17;96491.66;;;2.32;74.00
42847;BME280;28495;49.916;14.536;2022-12-07T08:28:38;96486.81;;;2.40;74.50
42847;BME280;28495;49.916;14.536;2022-12-07T08:33:58;96501.69;;;2.50;74.57
42847;BME280;28495;49.916;14.536;2022-12-07T08:39:19;96492.72;;;2.42;74.23
42847;BME280;28495;49.916;14.536;2022-12-07T08:44:51;96509.06;;;2.41;74.23
42847;BME280;28495;49.916;14.536;2022-12-07T08:50:12;96512.56;;;2.40;74.11
42847;BME280;28495;49.916;14.536;2022-12-07T08:55:34;96504.50;;;2.32;73.79
42847;BME280;28495;49.916;14.536;2022-12-07T09:00:54;96512.78;;;2.23;73.42
42847;BME280;28495;49.916;14.536;2022-12-07T09:06:15;96502.84;;;2.31;73.71
42847;BME280;28495;49.916;14.536;2022-12-07T09:11:36;96509.47;;;2.21;73.83
42847;BME280;28495;49.916;14.536;2022-12-07T09:17:07;96507.38;;;2.13;73.97
42847;BME280;28495;49.916;14.536;2022-12-07T09:22:28;96502.78;;;2.18;74.24
42847;BME280;28495;49.916;14.536;2022-12-07T09:27:55;96495.31;;;2.28;74.00
42847;BME280;28495;49.916;14.536;2022-12-07T09:33:15;96503.16;;;2.26;73.58
42847;BME280;28495;49.916;14.536;2022-12-07T09:38:36;96499.19;;;2.21;73.57
42847;BME280;28495;49.916;14.536;2022-12-07T09:44:03;96492.63;;;2.29;73.85
42847;BME280;28495;49.916;14.536;2022-12-07T09:49:31;96500.31;;;2.17;74.26
42847;BME280;28495;49.916;14.536;2022-12-07T09:54:52;96489.53;;;2.24;74.62
42847;BME280;28495;49.916;14.536;2022-12-07T10:00:14;96479.41;;;2.36;74.50
42847;BME280;28495;49.916;14.536;2022-12-07T10:05:36;96486.38;;;2.34;73.80
42847;BME280;28495;49.916;14.536;2022-12-07T10:10:59;96485.66;;;2.32;74.29
42847;BME280;28495;49.916;14.536;2022-12-07T10:22:02;96483.53;;;2.38;73.78
42847;BME280;28495;49.916;14.536;2022-12-07T10:27:30;96470.69;;;2.24;74.18
42847;BME280;28495;49.916;14.536;2022-12-07T10:32:52;96467.59;;;3.40;77.51
42847;BME280;28495;49.916;14.536;2022-12-07T10:38:16;96468.47;;;3.00;74.55
42847;BME280;28495;49.916;14.536;2022-12-07T10:43:37;96468.81;;;2.68;73.75
42847;BME280;28495;49.916;14.536;2022-12-07T11:00:25;96480.66;;;2.43;73.69
42847;BME280;28495;49.916;14.536;2022-12-07T11:11:45;96469.69;;;2.26;74.62
42847;BME280;28495;49.916;14.536;2022-12-07T11:33:57;96429.97;;;2.31;74.11
42847;BME280;28495;49.916;14.536;2022-12-07T11:44:48;96422.59;;;2.39;74.74
42847;BME280;28495;49.916;14.536;2022-12-07T11:50:32;96413.03;;;2.41;74.08
42847;BME280;28495;49.916;14.536;2022-12-07T11:56:13;96419.41;;;2.48;74.44
42847;BME280;28495;49.916;14.536;2022-12-07T12:06:58;96411.13;;;2.70;74.66
42847;BME280;28495;49.916;14.536;2022-12-07T12:24:31;96406.94;;;2.82;73.96
42847;BME280;28495;49.916;14.536;2022-12-07T12:30:01;96396.44;;;2.85;74.69
42847;BME280;28495;49.916;14.536;2022-12-07T12:40:46;96404.78;;;2.89;74.20
42847;BME280;28495;49.916;14.536;2022-12-07T12:51:54;96404.47;;;2.94;74.70
42847;BME280;28495;49.916;14.536;2022-12-07T12:57:22;96405.22;;;3.09;74.47
42847;BME280;28495;49.916;14.536;2022-12-07T13:02:56;96399.03;;;3.11;74.31
42847;BME280;28495;49.916;14.536;2022-12-07T13:08:23;96398.72;;;3.16;73.94
42847;BME280;28495;49.916;14.536;2022-12-07T13:13:56;96396.53;;;3.23;73.72
42847;BME280;28495;49.916;14.536;2022-12-07T13:19:55;96408.28;;;3.14;73.67
42847;BME280;28495;49.916;14.536;2022-12-07T13:25:19;96414.59;;;3.10;74.04
42847;BME280;28495;49.916;14.536;2022-12-07T13:30:43;96419.81;;;2.95;73.50
42847;BME280;28495;49.916;14.536;2022-12-07T13:36:10;96410.75;;;2.89;73.20
42847;BME280;28495;49.916;14.536;2022-12-07T13:41:35;96407.84;;;2.81;73.74
42847;BME280;28495;49.916;14.536;2022-12-07T13:52:18;96410.94;;;2.73;73.51
42847;BME280;28495;49.916;14.536;2022-12-07T13:57:39;96412.06;;;2.69;74.14
42847;BME280;28495;49.916;14.536;2022-12-07T14:03:02;96406.41;;;2.64;73.31
42847;BME280;28495;49.916;14.536;2022-12-07T14:08:23;96396.19;;;2.63;73.70
42847;BME280;28495;49.916;14.536;2022-12-07T14:13:51;96401.13;;;2.66;73.83
42847;BME280;28495;49.916;14.536;2022-12-07T14:30:38;96394.88;;;2.70;73.56
42847;BME280;28495;49.916;14.536;2022-12-07T14:36:01;96400.09;;;2.68;73.42
42847;BME280;28495;49.916;14.536;2022-12-07T14:41:22;96396.19;;;2.63;73.59
42847;BME280;28495;49.916;14.536;2022-12-07T14:47:01;96399.50;;;2.65;74.39
42847;BME280;28495;49.916;14.536;2022-12-07T14:52:43;96396.00;;;2.66;73.85
42847;BME280;28495;49.916;14.536;2022-12-07T14:58:23;96386.41;;;2.68;73.52
42847;BME280;28495;49.916;14.536;2022-12-07T15:03:44;96396.19;;;2.63;73.32
42847;BME280;28495;49.916;14.536;2022-12-07T15:09:05;96386.50;;;2.53;73.78
42847;BME280;28495;49.916;14.536;2022-12-07T15:14:26;96377.00;;;2.54;74.15
42847;BME280;28495;49.916;14.536;2022-12-07T15:19:47;96376.72;;;2.58;73.70
42847;BME280;28495;49.916;14.536;2022-12-07T15:25:08;96386.50;;;2.53;73.73
42847;BME280;28495;49.916;14.536;2022-12-07T15:30:32;96387.94;;;2.57;73.36
42847;BME280;28495;49.916;14.536;2022-12-07T15:35:53;96383.38;;;2.48;73.20
42847;BME280;28495;49.916;14.536;2022-12-07T15:41:14;96380.31;;;2.56;73.67
42847;BME280;28495;49.916;14.536;2022-12-07T15:46:36;96392.38;;;2.55;73.60
42847;BME280;28495;49.916;14.536;2022-12-07T15:51:58;96383.19;;;2.51;73.79
42847;BME280;28495;49.916;14.536;2022-12-07T15:57:19;96387.91;;;2.44;73.75
42847;BME280;28495;49.916;14.536;2022-12-07T16:02:44;96397.06;;;2.36;73.76
42847;BME280;28495;49.916;14.536;2022-12-07T16:08:05;96392.28;;;2.29;74.00
42847;BME280;28495;49.916;14.536;2022-12-07T16:13:26;96395.78;;;2.28;73.61
42847;BME280;28495;49.916;14.536;2022-12-07T16:18:47;96392.19;;;2.31;73.19
42847;BME280;28495;49.916;14.536;2022-12-07T16:24:08;96388.28;;;2.38;73.89
42847;BME280;28495;49.916;14.536;2022-12-07T16:29:30;96392.94;;;2.46;73.88
42847;BME280;28495;49.916;14.536;2022-12-07T16:34:51;96386.50;;;2.53;74.29
42847;BME280;28495;49.916;14.536;2022-12-07T16:40:12;96383.69;;;2.43;73.74
42847;BME280;28495;49.916;14.536;2022-12-07T16:45:33;96390.72;;;2.54;74.05
42847;BME280;28495;49.916;14.536;2022-12-07T16:50:54;96391.53;;;2.55;73.21
42847;BME280;28495;49.916;14.536;2022-12-07T16:56:15;96378.66;;;2.55;73.78
42847;BME280;28495;49.916;14.536;2022-12-07T17:01:36;96400.03;;;2.70;74.04
42847;BME280;28495;49.916;14.536;2022-12-07T17:06:58;96397.72;;;2.65;72.91
42847;BME280;28495;49.916;14.536;2022-12-07T17:12:19;96392.50;;;2.67;73.11
42847;BME280;28495;49.916;14.536;2022-12-07T17:17:40;96400.75;;;2.72;73.76
42847;BME280;28495;49.916;14.536;2022-12-07T17:23:00;96391.38;;;2.84;73.53
42847;BME280;28495;49.916;14.536;2022-12-07T17:28:21;96387.75;;;2.73;73.22
42847;BME280;28495;49.916;14.536;2022-12-07T17:33:42;96400.84;;;2.70;73.28
42847;BME280;28495;49.916;14.536;2022-12-07T17:39:09;96399.06;;;2.58;73.13
42847;BME280;28495;49.916;14.536;2022-12-07T17:44:31;96408.19;;;2.49;73.15
42847;BME280;28495;49.916;14.536;2022-12-07T17:49:52;96403.06;;;2.49;72.76
42847;BME280;28495;49.916;14.536;2022-12-07T17:55:12;96399.66;;;2.49;73.39
42847;BME280;28495;49.916;14.536;2022-12-07T18:00:33;96405.03;;;2.58;73.30
42847;BME280;28495;49.916;14.536;2022-12-07T18:05:59;96402.25;;;2.49;73.33
42847;BME280;28495;49.916;14.536;2022-12-07T18:11:20;96399.03;;;2.45;73.36
42847;BME280;28495;49.916;14.536;2022-12-07T18:16:41;96397.47;;;2.42;73.22
42847;BME280;28495;49.916;14.536;2022-12-07T18:22:05;96398.59;;;2.38;73.33
42847;BME280;28495;49.916;14.536;2022-12-07T18:27:25;96405.00;;;2.46;72.92
42847;BME280;28495;49.916;14.536;2022-12-07T18:32:46;96404.72;;;2.50;73.64
42847;BME280;28495;49.916;14.536;2022-12-07T18:38:07;96402.94;;;2.51;73.53
42847;BME280;28495;49.916;14.536;2022-12-07T18:43:28;96404.94;;;2.60;73.12
42847;BME280;28495;49.916;14.536;2022-12-07T18:48:49;96403.59;;;2.54;73.04
42847;BME280;28495;49.916;14.536;2022-12-07T18:54:11;96405.94;;;2.57;72.98
42847;BME280;28495;49.916;14.536;2022-12-07T18:59:31;96412.25;;;2.53;72.91
42847;BME280;28495;49.916;14.536;2022-12-07T19:05:10;96409.56;;;2.55;73.13
42847;BME280;28495;49.916;14.536;2022-12-07T19:46:15;96389.06;;;2.53;73.57
42847;BME280;28495;49.916;14.536;2022-12-07T19:51:39;96397.09;;;2.49;73.12
42847;BME280;28495;49.916;14.536;2022-12-07T19:57:00;96398.81;;;2.48;72.88
42847;BME280;28495;49.916;14.536;2022-12-07T20:02:21;96398.03;;;2.48;73.30
42847;BME280;28495;49.916;14.536;2022-12-07T20:07:44;96399.06;;;2.58;74.00
42847;BME280;28495;49.916;14.536;2022-12-07T20:13:05;96394.72;;;2.46;73.39
42847;BME280;28495;49.916;14.536;2022-12-07T20:18:44;96391.09;;;2.48;73.60
42847;BME280;28495;49.916;14.536;2022-12-07T20:24:06;96385.66;;;2.40;73.20
42847;BME280;28495;49.916;14.536;2022-12-07T20:29:27;96386.03;;;2.34;73.43
42847;BME280;28495;49.916;14.536;2022-12-07T20:34:50;96382.31;;;2.78;75.05
42847;BME280;28495;49.916;14.536;2022-12-07T21:03:17;96373.28;;;2.45;73.04
42847;BME280;28495;49.916;14.536;2022-12-07T21:08:38;96371.56;;;2.46;73.21
42847;BME280;28495;49.916;14.536;2022-12-07T21:13:58;96373.16;;;2.34;73.08
42847;BME280;28495;49.916;14.536;2022-12-07T21:19:19;96362.31;;;2.28;73.35
42847;BME280;28495;49.916;14.536;2022-12-07T21:30:25;96368.31;;;2.29;73.80
42847;BME280;28495;49.916;14.536;2022-12-07T21:35:46;96360.19;;;2.35;73.57
42847;BME280;28495;49.916;14.536;2022-12-07T21:41:50;96362.25;;;2.43;73.97
42847;BME280;28495;49.916;14.536;2022-12-07T21:53:02;96368.44;;;2.40;73.78
42847;BME280;28495;49.916;14.536;2022-12-07T21:58:23;96361.84;;;2.36;73.34
42847;BME280;28495;49.916;14.536;2022-12-07T22:03:44;96366.16;;;2.36;73.74
42847;BME280;28495;49.916;14.536;2022-12-07T22:09:05;96376.09;;;2.42;73.39
42847;BME280;28495;49.916;14.536;2022-12-07T22:14:26;96368.44;;;2.40;73.06
42847;BME280;28495;49.916;14.536;2022-12-07T22:20:06;96377.19;;;2.51;73.71
42847;BME280;28495;49.916;14.536;2022-12-07T22:25:27;96366.22;;;2.49;73.21
42847;BME280;28495;49.916;14.536;2022-12-07T22:30:48;96369.34;;;2.39;73.10
42847;BME280;28495;49.916;14.536;2022-12-07T22:36:09;96375.44;;;2.38;73.70
42847;BME280;28495;49.916;14.536;2022-12-07T22:41:30;96369.78;;;2.33;73.11
42847;BME280;28495;49.916;14.536;2022-12-07T22:46:51;96355.25;;;2.32;73.61
42847;BME280;28495;49.916;14.536;2022-12-07T22:52:12;96355.38;;;2.43;73.65
42847;BME280;28495;49.916;14.536;2022-12-07T22:57:32;96350.84;;;2.47;73.33
42847;BME280;28495;49.916;14.536;2022-12-07T23:02:53;96355.25;;;2.45;73.79
42847;BME280;28495;49.916;14.536;2022-12-07T23:08:15;96345.50;;;2.50;73.73
42847;BME280;28495;49.916;14.536;2022-12-07T23:13:36;96339.63;;;2.48;73.38
42847;BME280;28495;49.916;14.536;2022-12-07T23:18:57;96332.94;;;2.58;73.68
42847;BME280;28495;49.916;14.536;2022-12-07T23:24:18;96331.09;;;2.61;73.22
42847;BME280;28495;49.916;14.536;2022-12-07T23:29:39;96329.16;;;2.64;73.36
42847;BME280;28495;49.916;14.536;2022-12-07T23:35:00;96322.47;;;2.74;73.73
42847;BME280;28495;49.916;14.536;2022-12-07T23:40:21;96318.44;;;2.70;73.16
42847;BME280;28495;49.916;14.536;2022-12-07T23:45:43;96322.47;;;2.74;73.35
42847;BME280;28495;49.916;14.536;2022-12-07T23:51:04;96322.25;;;2.65;72.92
42847;BME280;28495;49.916;14.536;2022-12-07T23:56:27;96313.50;;;2.80;73.50
